Califon, New Jersey
Current Conditions -  °F | °C
As of 2:53 AM on Sunday 23 Nov 2014 (Local Time) from KSMQ Reporting Station
Broken Clouds Broken Clouds  
Wind Chill: 38°   Ceiling: 11000
Heat Index: 38°   Visibility: 10mi
Dew Point: 22°   Wind: 0mph
Humidity: 53%   Direction: NA
Pressure: 30.18"   Gusts: NA
Location:  40.72°N, 74.84°W
Report Text: KSMQ 230753Z AUTO 00000KT 10SM BKN110 03/M06 A3018 RMK AO2 SLP222 T00331056
Loading
Personal Weather Stations






























Interactive Weather Map New forecast layout! Learn more

10-Day Weather Forecast

Advertisements
Track Severe Weather on mobile